sensor_id;sensor_type;location;lat;lon;timestamp;P1;durP1;ratioP1;P2;durP2;ratioP2
19482;SDS011;9882;51.166;6.992;2023-10-31T00:01:42;6.20;;;3.47;;
19482;SDS011;9882;51.166;6.992;2023-10-31T00:04:12;7.43;;;3.47;;
19482;SDS011;9882;51.166;6.992;2023-10-31T00:06:54;6.22;;;3.33;;
19482;SDS011;9882;51.166;6.992;2023-10-31T00:09:24;3.40;;;2.50;;
19482;SDS011;9882;51.166;6.992;2023-10-31T00:11:56;2.60;;;2.17;;
19482;SDS011;9882;51.166;6.992;2023-10-31T00:14:29;4.05;;;2.35;;
19482;SDS011;9882;51.166;6.992;2023-10-31T00:17:04;2.70;;;1.98;;
19482;SDS011;9882;51.166;6.992;2023-10-31T00:19:33;2.83;;;2.05;;
19482;SDS011;9882;51.166;6.992;2023-10-31T00:22:02;2.65;;;1.95;;
19482;SDS011;9882;51.166;6.992;2023-10-31T00:24:38;2.38;;;2.17;;
19482;SDS011;9882;51.166;6.992;2023-10-31T00:27:08;2.20;;;1.85;;
19482;SDS011;9882;51.166;6.992;2023-10-31T00:29:39;5.03;;;2.33;;
19482;SDS011;9882;51.166;6.992;2023-10-31T00:32:13;4.28;;;2.30;;
19482;SDS011;9882;51.166;6.992;2023-10-31T00:34:43;4.28;;;2.80;;
19482;SDS011;9882;51.166;6.992;2023-10-31T00:37:14;5.15;;;2.92;;
19482;SDS011;9882;51.166;6.992;2023-10-31T00:39:48;5.32;;;2.60;;
19482;SDS011;9882;51.166;6.992;2023-10-31T00:42:19;6.30;;;3.40;;
19482;SDS011;9882;51.166;6.992;2023-10-31T00:44:50;5.30;;;2.95;;
19482;SDS011;9882;51.166;6.992;2023-10-31T00:47:19;5.35;;;3.13;;
19482;SDS011;9882;51.166;6.992;2023-10-31T00:49:49;7.55;;;3.10;;
19482;SDS011;9882;51.166;6.992;2023-10-31T00:52:21;8.57;;;3.08;;
19482;SDS011;9882;51.166;6.992;2023-10-31T00:54:50;5.18;;;2.65;;
19482;SDS011;9882;51.166;6.992;2023-10-31T00:57:21;2.80;;;2.55;;
19482;SDS011;9882;51.166;6.992;2023-10-31T00:59:51;3.63;;;2.60;;
19482;SDS011;9882;51.166;6.992;2023-10-31T01:02:25;9.35;;;2.47;;
19482;SDS011;9882;51.166;6.992;2023-10-31T01:04:54;4.50;;;2.38;;
19482;SDS011;9882;51.166;6.992;2023-10-31T01:07:23;6.18;;;2.25;;
19482;SDS011;9882;51.166;6.992;2023-10-31T01:09:52;3.05;;;2.13;;
19482;SDS011;9882;51.166;6.992;2023-10-31T01:12:24;2.40;;;2.00;;
19482;SDS011;9882;51.166;6.992;2023-10-31T01:14:57;3.22;;;2.15;;
19482;SDS011;9882;51.166;6.992;2023-10-31T01:17:27;3.17;;;2.25;;
19482;SDS011;9882;51.166;6.992;2023-10-31T01:20:05;3.03;;;2.35;;
19482;SDS011;9882;51.166;6.992;2023-10-31T01:22:36;4.78;;;2.58;;
19482;SDS011;9882;51.166;6.992;2023-10-31T01:25:07;5.70;;;2.60;;
19482;SDS011;9882;51.166;6.992;2023-10-31T01:27:39;4.10;;;2.60;;
19482;SDS011;9882;51.166;6.992;2023-10-31T01:30:11;6.38;;;2.72;;
19482;SDS011;9882;51.166;6.992;2023-10-31T01:32:46;5.90;;;2.90;;
19482;SDS011;9882;51.166;6.992;2023-10-31T01:35:16;4.97;;;2.65;;
19482;SDS011;9882;51.166;6.992;2023-10-31T01:37:47;5.95;;;2.83;;
19482;SDS011;9882;51.166;6.992;2023-10-31T01:40:16;9.02;;;3.30;;
19482;SDS011;9882;51.166;6.992;2023-10-31T01:42:48;4.78;;;3.03;;
19482;SDS011;9882;51.166;6.992;2023-10-31T01:45:21;5.55;;;2.72;;
19482;SDS011;9882;51.166;6.992;2023-10-31T01:47:51;6.03;;;2.95;;
19482;SDS011;9882;51.166;6.992;2023-10-31T01:50:21;6.72;;;3.10;;
19482;SDS011;9882;51.166;6.992;2023-10-31T01:52:52;10.95;;;3.13;;
19482;SDS011;9882;51.166;6.992;2023-10-31T01:55:26;5.30;;;3.00;;
19482;SDS011;9882;51.166;6.992;2023-10-31T01:58:02;7.80;;;3.20;;
19482;SDS011;9882;51.166;6.992;2023-10-31T02:00:33;10.48;;;3.55;;
19482;SDS011;9882;51.166;6.992;2023-10-31T02:03:08;7.40;;;3.28;;
19482;SDS011;9882;51.166;6.992;2023-10-31T02:05:37;4.43;;;2.95;;
19482;SDS011;9882;51.166;6.992;2023-10-31T02:08:09;7.60;;;3.33;;
19482;SDS011;9882;51.166;6.992;2023-10-31T02:10:38;8.07;;;3.45;;
19482;SDS011;9882;51.166;6.992;2023-10-31T02:13:12;5.97;;;3.33;;
19482;SDS011;9882;51.166;6.992;2023-10-31T02:15:42;10.23;;;3.75;;
19482;SDS011;9882;51.166;6.992;2023-10-31T02:18:11;8.25;;;3.25;;
19482;SDS011;9882;51.166;6.992;2023-10-31T02:20:41;9.48;;;3.33;;
19482;SDS011;9882;51.166;6.992;2023-10-31T02:23:12;8.25;;;3.67;;
19482;SDS011;9882;51.166;6.992;2023-10-31T02:25:44;8.18;;;3.22;;
19482;SDS011;9882;51.166;6.992;2023-10-31T02:28:13;7.80;;;3.00;;
19482;SDS011;9882;51.166;6.992;2023-10-31T02:30:44;4.72;;;2.97;;
19482;SDS011;9882;51.166;6.992;2023-10-31T02:33:13;5.10;;;3.03;;
19482;SDS011;9882;51.166;6.992;2023-10-31T02:35:42;7.05;;;3.25;;
19482;SDS011;9882;51.166;6.992;2023-10-31T02:38:13;4.50;;;2.97;;
19482;SDS011;9882;51.166;6.992;2023-10-31T02:40:43;8.65;;;3.10;;
19482;SDS011;9882;51.166;6.992;2023-10-31T02:43:11;7.47;;;3.17;;
19482;SDS011;9882;51.166;6.992;2023-10-31T02:45:40;8.35;;;3.08;;
19482;SDS011;9882;51.166;6.992;2023-10-31T02:48:09;5.13;;;2.92;;
19482;SDS011;9882;51.166;6.992;2023-10-31T02:50:39;8.95;;;3.35;;
19482;SDS011;9882;51.166;6.992;2023-10-31T02:53:08;6.00;;;2.92;;
19482;SDS011;9882;51.166;6.992;2023-10-31T02:55:38;6.93;;;3.17;;
19482;SDS011;9882;51.166;6.992;2023-10-31T02:58:07;8.70;;;3.80;;
19482;SDS011;9882;51.166;6.992;2023-10-31T03:00:36;5.63;;;2.65;;
19482;SDS011;9882;51.166;6.992;2023-10-31T03:03:05;6.57;;;3.20;;
19482;SDS011;9882;51.166;6.992;2023-10-31T03:05:34;13.23;;;3.08;;
19482;SDS011;9882;51.166;6.992;2023-10-31T03:08:04;5.05;;;3.05;;
19482;SDS011;9882;51.166;6.992;2023-10-31T03:10:34;6.93;;;3.00;;
19482;SDS011;9882;51.166;6.992;2023-10-31T03:13:05;4.75;;;3.00;;
19482;SDS011;9882;51.166;6.992;2023-10-31T03:15:34;10.73;;;3.85;;
19482;SDS011;9882;51.166;6.992;2023-10-31T03:18:02;5.47;;;2.85;;
19482;SDS011;9882;51.166;6.992;2023-10-31T03:20:32;11.00;;;3.50;;
19482;SDS011;9882;51.166;6.992;2023-10-31T03:23:01;8.13;;;3.58;;
19482;SDS011;9882;51.166;6.992;2023-10-31T03:25:30;6.22;;;3.20;;
19482;SDS011;9882;51.166;6.992;2023-10-31T03:27:59;6.57;;;3.15;;
19482;SDS011;9882;51.166;6.992;2023-10-31T03:30:29;9.02;;;3.30;;
19482;SDS011;9882;51.166;6.992;2023-10-31T03:32:58;9.23;;;3.33;;
19482;SDS011;9882;51.166;6.992;2023-10-31T03:35:28;9.65;;;3.60;;
19482;SDS011;9882;51.166;6.992;2023-10-31T03:37:57;6.25;;;3.03;;
19482;SDS011;9882;51.166;6.992;2023-10-31T03:40:26;8.35;;;3.55;;
19482;SDS011;9882;51.166;6.992;2023-10-31T03:42:56;7.80;;;3.00;;
19482;SDS011;9882;51.166;6.992;2023-10-31T03:45:26;6.93;;;3.15;;
19482;SDS011;9882;51.166;6.992;2023-10-31T03:47:57;9.90;;;3.03;;
19482;SDS011;9882;51.166;6.992;2023-10-31T03:50:26;8.65;;;3.25;;
19482;SDS011;9882;51.166;6.992;2023-10-31T03:52:55;10.38;;;3.30;;
19482;SDS011;9882;51.166;6.992;2023-10-31T03:55:24;6.45;;;2.88;;
19482;SDS011;9882;51.166;6.992;2023-10-31T03:57:53;4.85;;;2.63;;
19482;SDS011;9882;51.166;6.992;2023-10-31T04:00:22;6.70;;;3.03;;
19482;SDS011;9882;51.166;6.992;2023-10-31T04:02:51;5.63;;;2.72;;
19482;SDS011;9882;51.166;6.992;2023-10-31T04:05:22;5.78;;;2.70;;
19482;SDS011;9882;51.166;6.992;2023-10-31T04:07:52;8.13;;;2.70;;
19482;SDS011;9882;51.166;6.992;2023-10-31T04:10:21;5.32;;;2.80;;
19482;SDS011;9882;51.166;6.992;2023-10-31T04:12:50;5.15;;;2.58;;
19482;SDS011;9882;51.166;6.992;2023-10-31T04:15:19;4.80;;;2.50;;
19482;SDS011;9882;51.166;6.992;2023-10-31T04:17:49;4.95;;;2.40;;
19482;SDS011;9882;51.166;6.992;2023-10-31T04:20:18;6.20;;;3.03;;
19482;SDS011;9882;51.166;6.992;2023-10-31T04:22:49;6.82;;;2.80;;
19482;SDS011;9882;51.166;6.992;2023-10-31T04:25:18;4.55;;;2.70;;
19482;SDS011;9882;51.166;6.992;2023-10-31T04:27:49;4.72;;;2.70;;
19482;SDS011;9882;51.166;6.992;2023-10-31T04:30:18;7.68;;;2.75;;
19482;SDS011;9882;51.166;6.992;2023-10-31T04:32:47;6.03;;;2.80;;
19482;SDS011;9882;51.166;6.992;2023-10-31T04:35:16;9.27;;;3.00;;
19482;SDS011;9882;51.166;6.992;2023-10-31T04:37:45;5.30;;;2.95;;
19482;SDS011;9882;51.166;6.992;2023-10-31T04:40:16;5.97;;;2.95;;
19482;SDS011;9882;51.166;6.992;2023-10-31T04:42:46;5.18;;;2.97;;
19482;SDS011;9882;51.166;6.992;2023-10-31T04:45:15;6.40;;;2.80;;
19482;SDS011;9882;51.166;6.992;2023-10-31T04:47:44;8.38;;;3.03;;
19482;SDS011;9882;51.166;6.992;2023-10-31T04:50:13;4.85;;;2.70;;
19482;SDS011;9882;51.166;6.992;2023-10-31T04:52:43;8.25;;;3.03;;
19482;SDS011;9882;51.166;6.992;2023-10-31T04:55:12;2.88;;;2.40;;
19482;SDS011;9882;51.166;6.992;2023-10-31T04:57:43;7.30;;;3.20;;
19482;SDS011;9882;51.166;6.992;2023-10-31T05:00:12;4.68;;;2.47;;
19482;SDS011;9882;51.166;6.992;2023-10-31T05:02:42;5.65;;;2.88;;
19482;SDS011;9882;51.166;6.992;2023-10-31T05:05:11;7.72;;;2.88;;
19482;SDS011;9882;51.166;6.992;2023-10-31T05:07:40;6.60;;;3.03;;
19482;SDS011;9882;51.166;6.992;2023-10-31T05:10:09;3.40;;;2.58;;
19482;SDS011;9882;51.166;6.992;2023-10-31T05:12:39;9.52;;;3.05;;
19482;SDS011;9882;51.166;6.992;2023-10-31T05:15:10;7.82;;;3.25;;
19482;SDS011;9882;51.166;6.992;2023-10-31T05:17:39;6.32;;;3.30;;
19482;SDS011;9882;51.166;6.992;2023-10-31T05:20:09;6.70;;;3.50;;
19482;SDS011;9882;51.166;6.992;2023-10-31T05:22:40;11.13;;;3.38;;
19482;SDS011;9882;51.166;6.992;2023-10-31T05:25:12;8.23;;;3.50;;
19482;SDS011;9882;51.166;6.992;2023-10-31T05:27:40;6.47;;;3.17;;
19482;SDS011;9882;51.166;6.992;2023-10-31T05:30:13;9.35;;;3.47;;
19482;SDS011;9882;51.166;6.992;2023-10-31T05:32:43;12.85;;;3.80;;
19482;SDS011;9882;51.166;6.992;2023-10-31T05:35:12;6.55;;;3.30;;
19482;SDS011;9882;51.166;6.992;2023-10-31T05:37:42;9.27;;;3.55;;
19482;SDS011;9882;51.166;6.992;2023-10-31T05:40:11;9.30;;;3.47;;
19482;SDS011;9882;51.166;6.992;2023-10-31T05:42:40;7.32;;;3.50;;
19482;SDS011;9882;51.166;6.992;2023-10-31T05:45:11;11.40;;;3.35;;
19482;SDS011;9882;51.166;6.992;2023-10-31T05:47:40;8.85;;;3.60;;
19482;SDS011;9882;51.166;6.992;2023-10-31T05:50:09;9.60;;;3.42;;
19482;SDS011;9882;51.166;6.992;2023-10-31T05:52:38;4.78;;;3.05;;
19482;SDS011;9882;51.166;6.992;2023-10-31T05:55:07;8.45;;;3.85;;
19482;SDS011;9882;51.166;6.992;2023-10-31T05:57:36;5.25;;;3.22;;
19482;SDS011;9882;51.166;6.992;2023-10-31T06:00:06;9.68;;;3.55;;
19482;SDS011;9882;51.166;6.992;2023-10-31T06:02:40;9.02;;;3.70;;
19482;SDS011;9882;51.166;6.992;2023-10-31T06:05:13;12.95;;;3.78;;
19482;SDS011;9882;51.166;6.992;2023-10-31T06:07:45;5.68;;;3.30;;
19482;SDS011;9882;51.166;6.992;2023-10-31T06:10:16;10.05;;;3.85;;
19482;SDS011;9882;51.166;6.992;2023-10-31T06:12:45;7.72;;;4.20;;
19482;SDS011;9882;51.166;6.992;2023-10-31T06:15:16;9.65;;;4.60;;
19482;SDS011;9882;51.166;6.992;2023-10-31T06:17:49;11.60;;;4.20;;
19482;SDS011;9882;51.166;6.992;2023-10-31T06:20:18;11.48;;;4.40;;
19482;SDS011;9882;51.166;6.992;2023-10-31T06:22:47;7.90;;;4.38;;
19482;SDS011;9882;51.166;6.992;2023-10-31T06:25:16;13.35;;;4.68;;
19482;SDS011;9882;51.166;6.992;2023-10-31T06:27:46;11.82;;;4.80;;
19482;SDS011;9882;51.166;6.992;2023-10-31T06:30:15;13.57;;;5.38;;
19482;SDS011;9882;51.166;6.992;2023-10-31T06:32:46;12.10;;;5.22;;
19482;SDS011;9882;51.166;6.992;2023-10-31T06:35:17;11.35;;;5.32;;
19482;SDS011;9882;51.166;6.992;2023-10-31T06:37:46;8.93;;;4.32;;
19482;SDS011;9882;51.166;6.992;2023-10-31T06:40:15;16.27;;;5.07;;
19482;SDS011;9882;51.166;6.992;2023-10-31T06:42:44;10.10;;;5.18;;
19482;SDS011;9882;51.166;6.992;2023-10-31T06:45:13;10.55;;;4.68;;
19482;SDS011;9882;51.166;6.992;2023-10-31T06:47:43;9.63;;;4.85;;
19482;SDS011;9882;51.166;6.992;2023-10-31T06:50:13;10.18;;;4.75;;
19482;SDS011;9882;51.166;6.992;2023-10-31T06:55:36;11.13;;;5.07;;
19482;SDS011;9882;51.166;6.992;2023-10-31T06:58:04;10.48;;;4.85;;
19482;SDS011;9882;51.166;6.992;2023-10-31T07:00:34;10.10;;;5.18;;
19482;SDS011;9882;51.166;6.992;2023-10-31T07:03:04;11.35;;;5.30;;
19482;SDS011;9882;51.166;6.992;2023-10-31T07:05:36;18.00;;;5.78;;
19482;SDS011;9882;51.166;6.992;2023-10-31T07:08:09;11.38;;;5.38;;
19482;SDS011;9882;51.166;6.992;2023-10-31T07:13:41;11.68;;;5.50;;
19482;SDS011;9882;51.166;6.992;2023-10-31T07:16:11;10.88;;;4.82;;
19482;SDS011;9882;51.166;6.992;2023-10-31T07:18:39;8.27;;;4.97;;
19482;SDS011;9882;51.166;6.992;2023-10-31T07:21:08;9.45;;;4.88;;
19482;SDS011;9882;51.166;6.992;2023-10-31T07:23:37;15.00;;;5.53;;
19482;SDS011;9882;51.166;6.992;2023-10-31T07:26:06;15.13;;;6.05;;
19482;SDS011;9882;51.166;6.992;2023-10-31T07:28:34;13.50;;;5.47;;
19482;SDS011;9882;51.166;6.992;2023-10-31T07:31:03;22.08;;;6.22;;
19482;SDS011;9882;51.166;6.992;2023-10-31T07:33:32;11.32;;;5.22;;
19482;SDS011;9882;51.166;6.992;2023-10-31T07:36:01;13.05;;;6.07;;
19482;SDS011;9882;51.166;6.992;2023-10-31T07:38:31;15.60;;;5.78;;
19482;SDS011;9882;51.166;6.992;2023-10-31T07:41:01;17.55;;;6.72;;
19482;SDS011;9882;51.166;6.992;2023-10-31T07:43:30;12.65;;;5.78;;
19482;SDS011;9882;51.166;6.992;2023-10-31T07:45:59;13.50;;;6.07;;
19482;SDS011;9882;51.166;6.992;2023-10-31T07:48:28;11.45;;;5.50;;
19482;SDS011;9882;51.166;6.992;2023-10-31T07:50:56;13.02;;;5.90;;
19482;SDS011;9882;51.166;6.992;2023-10-31T07:53:25;15.13;;;5.80;;
19482;SDS011;9882;51.166;6.992;2023-10-31T07:55:53;16.17;;;5.90;;
19482;SDS011;9882;51.166;6.992;2023-10-31T07:58:23;13.00;;;5.53;;
19482;SDS011;9882;51.166;6.992;2023-10-31T08:00:51;13.20;;;5.50;;
19482;SDS011;9882;51.166;6.992;2023-10-31T08:03:20;10.98;;;5.22;;
19482;SDS011;9882;51.166;6.992;2023-10-31T08:05:48;17.17;;;5.43;;
19482;SDS011;9882;51.166;6.992;2023-10-31T08:08:17;18.60;;;5.93;;
19482;SDS011;9882;51.166;6.992;2023-10-31T08:10:46;10.77;;;4.65;;
19482;SDS011;9882;51.166;6.992;2023-10-31T08:13:14;12.50;;;5.53;;
19482;SDS011;9882;51.166;6.992;2023-10-31T08:15:44;17.50;;;6.10;;
19482;SDS011;9882;51.166;6.992;2023-10-31T08:18:12;12.75;;;5.68;;
19482;SDS011;9882;51.166;6.992;2023-10-31T08:20:41;14.95;;;5.80;;
19482;SDS011;9882;51.166;6.992;2023-10-31T08:23:12;15.07;;;5.32;;
19482;SDS011;9882;51.166;6.992;2023-10-31T08:25:41;14.15;;;5.88;;
19482;SDS011;9882;51.166;6.992;2023-10-31T08:28:10;12.30;;;4.90;;
19482;SDS011;9882;51.166;6.992;2023-10-31T08:30:39;12.90;;;5.30;;
19482;SDS011;9882;51.166;6.992;2023-10-31T08:33:09;9.60;;;5.10;;
19482;SDS011;9882;51.166;6.992;2023-10-31T08:35:37;12.20;;;5.10;;
19482;SDS011;9882;51.166;6.992;2023-10-31T08:38:06;9.20;;;4.65;;
19482;SDS011;9882;51.166;6.992;2023-10-31T08:40:38;14.98;;;4.38;;
19482;SDS011;9882;51.166;6.992;2023-10-31T08:43:07;10.18;;;4.60;;
19482;SDS011;9882;51.166;6.992;2023-10-31T08:45:36;14.38;;;4.85;;
19482;SDS011;9882;51.166;6.992;2023-10-31T08:48:05;13.20;;;5.28;;
19482;SDS011;9882;51.166;6.992;2023-10-31T08:50:35;9.00;;;4.43;;
19482;SDS011;9882;51.166;6.992;2023-10-31T08:53:04;11.23;;;4.72;;
19482;SDS011;9882;51.166;6.992;2023-10-31T08:55:33;11.30;;;4.13;;
19482;SDS011;9882;51.166;6.992;2023-10-31T08:58:01;8.45;;;4.28;;
19482;SDS011;9882;51.166;6.992;2023-10-31T09:00:30;13.30;;;4.32;;
19482;SDS011;9882;51.166;6.992;2023-10-31T09:02:58;11.23;;;4.70;;
19482;SDS011;9882;51.166;6.992;2023-10-31T09:05:27;8.50;;;4.30;;
19482;SDS011;9882;51.166;6.992;2023-10-31T09:07:57;13.60;;;5.45;;
19482;SDS011;9882;51.166;6.992;2023-10-31T09:10:25;9.65;;;4.65;;
19482;SDS011;9882;51.166;6.992;2023-10-31T09:12:54;9.35;;;4.18;;
19482;SDS011;9882;51.166;6.992;2023-10-31T09:15:22;7.82;;;4.15;;
19482;SDS011;9882;51.166;6.992;2023-10-31T09:17:51;9.70;;;4.00;;
19482;SDS011;9882;51.166;6.992;2023-10-31T09:20:19;9.00;;;3.92;;
19482;SDS011;9882;51.166;6.992;2023-10-31T09:22:48;8.02;;;3.95;;
19482;SDS011;9882;51.166;6.992;2023-10-31T09:25:18;14.57;;;5.00;;
19482;SDS011;9882;51.166;6.992;2023-10-31T09:27:47;10.00;;;4.30;;
19482;SDS011;9882;51.166;6.992;2023-10-31T09:30:15;10.95;;;4.40;;
19482;SDS011;9882;51.166;6.992;2023-10-31T09:32:44;8.85;;;4.10;;
19482;SDS011;9882;51.166;6.992;2023-10-31T09:35:13;10.32;;;4.38;;
19482;SDS011;9882;51.166;6.992;2023-10-31T09:37:42;11.52;;;4.53;;
19482;SDS011;9882;51.166;6.992;2023-10-31T09:40:11;11.07;;;4.88;;
19482;SDS011;9882;51.166;6.992;2023-10-31T09:42:41;8.23;;;3.78;;
19482;SDS011;9882;51.166;6.992;2023-10-31T09:45:10;9.23;;;3.85;;
19482;SDS011;9882;51.166;6.992;2023-10-31T09:47:38;9.15;;;4.65;;
19482;SDS011;9882;51.166;6.992;2023-10-31T09:50:08;7.00;;;3.65;;
19482;SDS011;9882;51.166;6.992;2023-10-31T09:52:38;14.93;;;4.30;;
19482;SDS011;9882;51.166;6.992;2023-10-31T09:55:07;8.07;;;3.88;;
19482;SDS011;9882;51.166;6.992;2023-10-31T09:57:36;7.28;;;3.55;;
19482;SDS011;9882;51.166;6.992;2023-10-31T10:00:07;5.72;;;3.22;;
19482;SDS011;9882;51.166;6.992;2023-10-31T10:02:37;7.35;;;3.70;;
19482;SDS011;9882;51.166;6.992;2023-10-31T10:05:06;10.88;;;3.47;;
19482;SDS011;9882;51.166;6.992;2023-10-31T10:07:36;7.80;;;3.17;;
19482;SDS011;9882;51.166;6.992;2023-10-31T10:10:10;6.82;;;3.13;;
19482;SDS011;9882;51.166;6.992;2023-10-31T10:12:41;4.40;;;2.92;;
19482;SDS011;9882;51.166;6.992;2023-10-31T10:15:11;5.65;;;3.20;;
19482;SDS011;9882;51.166;6.992;2023-10-31T10:17:41;8.75;;;3.13;;
19482;SDS011;9882;51.166;6.992;2023-10-31T10:20:17;9.10;;;3.00;;
19482;SDS011;9882;51.166;6.992;2023-10-31T10:22:46;7.18;;;3.00;;
19482;SDS011;9882;51.166;6.992;2023-10-31T10:25:15;5.10;;;2.83;;
19482;SDS011;9882;51.166;6.992;2023-10-31T10:27:45;9.02;;;3.17;;
19482;SDS011;9882;51.166;6.992;2023-10-31T10:30:15;7.63;;;3.22;;
19482;SDS011;9882;51.166;6.992;2023-10-31T10:32:44;13.73;;;3.42;;
19482;SDS011;9882;51.166;6.992;2023-10-31T10:35:12;6.03;;;3.28;;
19482;SDS011;9882;51.166;6.992;2023-10-31T10:37:42;5.40;;;3.10;;
19482;SDS011;9882;51.166;6.992;2023-10-31T10:40:12;3.92;;;2.78;;
19482;SDS011;9882;51.166;6.992;2023-10-31T10:42:44;6.15;;;3.03;;
19482;SDS011;9882;51.166;6.992;2023-10-31T10:45:16;7.05;;;3.05;;
19482;SDS011;9882;51.166;6.992;2023-10-31T10:47:46;6.95;;;3.03;;
19482;SDS011;9882;51.166;6.992;2023-10-31T10:50:15;4.85;;;2.80;;
19482;SDS011;9882;51.166;6.992;2023-10-31T10:52:48;5.47;;;3.08;;
19482;SDS011;9882;51.166;6.992;2023-10-31T10:55:21;3.50;;;2.63;;
19482;SDS011;9882;51.166;6.992;2023-10-31T10:57:56;4.68;;;2.88;;
19482;SDS011;9882;51.166;6.992;2023-10-31T11:00:30;7.25;;;3.25;;
19482;SDS011;9882;51.166;6.992;2023-10-31T11:02:59;9.88;;;3.22;;
19482;SDS011;9882;51.166;6.992;2023-10-31T11:05:28;9.60;;;3.13;;
19482;SDS011;9882;51.166;6.992;2023-10-31T11:07:59;6.35;;;2.88;;
19482;SDS011;9882;51.166;6.992;2023-10-31T11:10:29;8.50;;;3.22;;
19482;SDS011;9882;51.166;6.992;2023-10-31T11:12:58;4.65;;;2.85;;
19482;SDS011;9882;51.166;6.992;2023-10-31T11:15:27;12.10;;;2.90;;
19482;SDS011;9882;51.166;6.992;2023-10-31T11:17:57;11.20;;;2.97;;
19482;SDS011;9882;51.166;6.992;2023-10-31T11:20:26;5.93;;;2.78;;
19482;SDS011;9882;51.166;6.992;2023-10-31T11:22:56;6.13;;;2.97;;
19482;SDS011;9882;51.166;6.992;2023-10-31T11:25:25;13.35;;;3.10;;
19482;SDS011;9882;51.166;6.992;2023-10-31T11:27:56;4.47;;;2.75;;
19482;SDS011;9882;51.166;6.992;2023-10-31T11:30:38;6.22;;;3.03;;
19482;SDS011;9882;51.166;6.992;2023-10-31T11:33:12;4.18;;;2.50;;
19482;SDS011;9882;51.166;6.992;2023-10-31T11:35:42;3.10;;;2.47;;
19482;SDS011;9882;51.166;6.992;2023-10-31T11:38:11;5.55;;;2.63;;
19482;SDS011;9882;51.166;6.992;2023-10-31T11:40:57;3.08;;;2.30;;
19482;SDS011;9882;51.166;6.992;2023-10-31T11:46:20;9.95;;;3.30;;
19482;SDS011;9882;51.166;6.992;2023-10-31T11:48:53;4.18;;;2.60;;
19482;SDS011;9882;51.166;6.992;2023-10-31T11:51:22;4.72;;;2.38;;
19482;SDS011;9882;51.166;6.992;2023-10-31T11:53:51;7.78;;;2.90;;
19482;SDS011;9882;51.166;6.992;2023-10-31T11:56:20;6.45;;;2.92;;
19482;SDS011;9882;51.166;6.992;2023-10-31T11:59:00;4.93;;;2.60;;
19482;SDS011;9882;51.166;6.992;2023-10-31T12:01:30;7.22;;;2.85;;
19482;SDS011;9882;51.166;6.992;2023-10-31T12:04:00;4.75;;;2.50;;
19482;SDS011;9882;51.166;6.992;2023-10-31T12:06:31;3.63;;;2.53;;
19482;SDS011;9882;51.166;6.992;2023-10-31T12:08:59;8.85;;;2.35;;
19482;SDS011;9882;51.166;6.992;2023-10-31T12:11:29;6.38;;;2.55;;
19482;SDS011;9882;51.166;6.992;2023-10-31T12:13:58;3.65;;;1.95;;
19482;SDS011;9882;51.166;6.992;2023-10-31T12:16:29;8.90;;;2.80;;
19482;SDS011;9882;51.166;6.992;2023-10-31T12:19:00;4.82;;;2.60;;
19482;SDS011;9882;51.166;6.992;2023-10-31T12:21:33;9.75;;;2.60;;
19482;SDS011;9882;51.166;6.992;2023-10-31T12:24:03;9.32;;;2.17;;
19482;SDS011;9882;51.166;6.992;2023-10-31T12:26:33;3.38;;;2.25;;
19482;SDS011;9882;51.166;6.992;2023-10-31T12:29:08;4.78;;;2.40;;
19482;SDS011;9882;51.166;6.992;2023-10-31T12:31:44;9.18;;;2.30;;
19482;SDS011;9882;51.166;6.992;2023-10-31T12:34:16;5.43;;;2.10;;
19482;SDS011;9882;51.166;6.992;2023-10-31T12:36:46;6.32;;;2.25;;
19482;SDS011;9882;51.166;6.992;2023-10-31T12:39:16;2.88;;;1.92;;
19482;SDS011;9882;51.166;6.992;2023-10-31T12:41:47;5.53;;;2.13;;
19482;SDS011;9882;51.166;6.992;2023-10-31T12:44:17;3.53;;;2.25;;
19482;SDS011;9882;51.166;6.992;2023-10-31T12:46:51;6.57;;;2.22;;
19482;SDS011;9882;51.166;6.992;2023-10-31T12:49:21;2.05;;;1.55;;
19482;SDS011;9882;51.166;6.992;2023-10-31T12:51:57;3.65;;;2.15;;
19482;SDS011;9882;51.166;6.992;2023-10-31T12:54:30;2.55;;;1.88;;
19482;SDS011;9882;51.166;6.992;2023-10-31T12:56:59;3.95;;;2.10;;
19482;SDS011;9882;51.166;6.992;2023-10-31T12:59:29;4.35;;;1.70;;
19482;SDS011;9882;51.166;6.992;2023-10-31T13:01:58;3.90;;;2.10;;
19482;SDS011;9882;51.166;6.992;2023-10-31T13:04:29;2.33;;;2.13;;
19482;SDS011;9882;51.166;6.992;2023-10-31T13:06:58;4.95;;;2.15;;
19482;SDS011;9882;51.166;6.992;2023-10-31T13:09:28;4.75;;;2.10;;
19482;SDS011;9882;51.166;6.992;2023-10-31T13:11:59;4.25;;;1.98;;
19482;SDS011;9882;51.166;6.992;2023-10-31T13:14:28;6.30;;;2.03;;
19482;SDS011;9882;51.166;6.992;2023-10-31T13:16:57;6.78;;;1.75;;
19482;SDS011;9882;51.166;6.992;2023-10-31T13:19:25;5.00;;;2.42;;
19482;SDS011;9882;51.166;6.992;2023-10-31T13:21:55;5.45;;;1.85;;
19482;SDS011;9882;51.166;6.992;2023-10-31T13:24:24;5.40;;;2.10;;
19482;SDS011;9882;51.166;6.992;2023-10-31T13:26:53;10.40;;;2.33;;
19482;SDS011;9882;51.166;6.992;2023-10-31T13:29:21;11.25;;;2.17;;
19482;SDS011;9882;51.166;6.992;2023-10-31T13:31:52;4.40;;;1.90;;
19482;SDS011;9882;51.166;6.992;2023-10-31T13:34:21;3.47;;;1.83;;
19482;SDS011;9882;51.166;6.992;2023-10-31T13:36:49;12.57;;;2.30;;
19482;SDS011;9882;51.166;6.992;2023-10-31T13:39:20;4.90;;;2.00;;
19482;SDS011;9882;51.166;6.992;2023-10-31T13:41:49;3.75;;;2.17;;
19482;SDS011;9882;51.166;6.992;2023-10-31T13:44:18;5.78;;;2.17;;
19482;SDS011;9882;51.166;6.992;2023-10-31T13:46:48;8.38;;;2.47;;
19482;SDS011;9882;51.166;6.992;2023-10-31T13:49:16;6.25;;;2.17;;
19482;SDS011;9882;51.166;6.992;2023-10-31T13:51:46;2.60;;;2.00;;
19482;SDS011;9882;51.166;6.992;2023-10-31T13:54:15;11.32;;;2.33;;
19482;SDS011;9882;51.166;6.992;2023-10-31T13:56:46;3.85;;;2.17;;
19482;SDS011;9882;51.166;6.992;2023-10-31T13:59:14;6.65;;;1.88;;
19482;SDS011;9882;51.166;6.992;2023-10-31T14:01:45;6.95;;;1.95;;
19482;SDS011;9882;51.166;6.992;2023-10-31T14:04:15;3.83;;;1.95;;
19482;SDS011;9882;51.166;6.992;2023-10-31T14:06:44;2.90;;;1.73;;
19482;SDS011;9882;51.166;6.992;2023-10-31T14:09:16;4.18;;;1.60;;
19482;SDS011;9882;51.166;6.992;2023-10-31T14:11:46;2.03;;;1.75;;
19482;SDS011;9882;51.166;6.992;2023-10-31T14:14:14;3.03;;;1.95;;
19482;SDS011;9882;51.166;6.992;2023-10-31T14:16:43;4.15;;;1.70;;
19482;SDS011;9882;51.166;6.992;2023-10-31T14:19:12;2.80;;;1.90;;
19482;SDS011;9882;51.166;6.992;2023-10-31T14:21:42;4.45;;;2.25;;
19482;SDS011;9882;51.166;6.992;2023-10-31T14:24:11;2.28;;;1.73;;
19482;SDS011;9882;51.166;6.992;2023-10-31T14:26:40;7.18;;;2.80;;
19482;SDS011;9882;51.166;6.992;2023-10-31T14:29:11;6.35;;;2.20;;
19482;SDS011;9882;51.166;6.992;2023-10-31T14:31:40;8.23;;;2.10;;
19482;SDS011;9882;51.166;6.992;2023-10-31T14:34:09;3.05;;;1.65;;
19482;SDS011;9882;51.166;6.992;2023-10-31T14:36:38;2.95;;;1.98;;
19482;SDS011;9882;51.166;6.992;2023-10-31T14:39:07;6.00;;;2.22;;
19482;SDS011;9882;51.166;6.992;2023-10-31T14:41:36;9.70;;;2.40;;
19482;SDS011;9882;51.166;6.992;2023-10-31T14:44:05;3.45;;;2.03;;
19482;SDS011;9882;51.166;6.992;2023-10-31T14:46:36;5.78;;;2.25;;
19482;SDS011;9882;51.166;6.992;2023-10-31T14:49:05;7.15;;;2.00;;
19482;SDS011;9882;51.166;6.992;2023-10-31T14:51:33;6.25;;;2.03;;
19482;SDS011;9882;51.166;6.992;2023-10-31T14:54:02;3.22;;;2.28;;
19482;SDS011;9882;51.166;6.992;2023-10-31T14:56:31;9.32;;;2.47;;
19482;SDS011;9882;51.166;6.992;2023-10-31T14:59:01;8.38;;;1.98;;
19482;SDS011;9882;51.166;6.992;2023-10-31T15:01:30;5.20;;;1.88;;
19482;SDS011;9882;51.166;6.992;2023-10-31T15:04:00;5.80;;;2.10;;
19482;SDS011;9882;51.166;6.992;2023-10-31T15:06:29;4.80;;;2.17;;
19482;SDS011;9882;51.166;6.992;2023-10-31T15:08:57;3.22;;;2.00;;
19482;SDS011;9882;51.166;6.992;2023-10-31T15:11:26;4.75;;;1.95;;
19482;SDS011;9882;51.166;6.992;2023-10-31T15:13:55;13.93;;;2.30;;
19482;SDS011;9882;51.166;6.992;2023-10-31T15:16:23;7.82;;;2.25;;
19482;SDS011;9882;51.166;6.992;2023-10-31T15:18:52;6.97;;;2.15;;
19482;SDS011;9882;51.166;6.992;2023-10-31T15:21:22;6.70;;;2.30;;
19482;SDS011;9882;51.166;6.992;2023-10-31T15:23:51;2.83;;;1.90;;